Spencer, Nebraska
Current Conditions -  °F | °C
As of 7:55 AM on Sunday 25 Jan 2015 (Local Time) from KONL Reporting Station
Overcast Overcast  
Wind Chill: 27°   Ceiling: 1700
Heat Index: 37°   Visibility: 10mi
Dew Point: 34°   Wind: 18mph
Humidity: 91%   Direction: 330°NNW
Pressure: 29.95"   Gusts: 25mph
Location:  42.87°N, 98.7°W
Report Text: KONL 251355Z AUTO 33016G22KT 10SM OVC017 03/01 A2995 RMK AO2 P0001 T00260013
Loading
Personal Weather Stations






























Interactive Weather Map New forecast layout! Learn more

10-Day Weather Forecast

Advertisements
Track Severe Weather on mobile